sensor_id;sensor_type;location;lat;lon;timestamp;temperature;humidity
5344;DHT22;2694;48.954;8.928;2023-03-04T00:02:21;-0.80;99.90
5344;DHT22;2694;48.954;8.928;2023-03-04T00:04:49;-0.90;99.90
5344;DHT22;2694;48.954;8.928;2023-03-04T00:07:15;-0.90;99.90
5344;DHT22;2694;48.954;8.928;2023-03-04T00:09:43;-0.80;99.90
5344;DHT22;2694;48.954;8.928;2023-03-04T00:12:11;-0.90;99.90
5344;DHT22;2694;48.954;8.928;2023-03-04T00:14:39;-1.00;99.90
5344;DHT22;2694;48.954;8.928;2023-03-04T00:17:06;-1.00;99.90
5344;DHT22;2694;48.954;8.928;2023-03-04T00:19:33;-1.00;99.90
5344;DHT22;2694;48.954;8.928;2023-03-04T00:22:01;1.80;99.90
5344;DHT22;2694;48.954;8.928;2023-03-04T00:24:30;-1.00;99.90
5344;DHT22;2694;48.954;8.928;2023-03-04T00:26:57;0.40;99.90
5344;DHT22;2694;48.954;8.928;2023-03-04T00:29:24;-1.10;99.90
5344;DHT22;2694;48.954;8.928;2023-03-04T00:31:52;-1.20;99.90
5344;DHT22;2694;48.954;8.928;2023-03-04T00:34:19;-1.10;99.90
5344;DHT22;2694;48.954;8.928;2023-03-04T00:36:46;-1.10;99.90
5344;DHT22;2694;48.954;8.928;2023-03-04T00:39:13;-1.10;99.90
5344;DHT22;2694;48.954;8.928;2023-03-04T00:41:40;-1.00;99.90
5344;DHT22;2694;48.954;8.928;2023-03-04T00:44:07;-1.10;99.90
5344;DHT22;2694;48.954;8.928;2023-03-04T00:46:34;-1.20;99.90
5344;DHT22;2694;48.954;8.928;2023-03-04T00:49:03;-1.30;99.90
5344;DHT22;2694;48.954;8.928;2023-03-04T00:51:30;-1.30;99.90
5344;DHT22;2694;48.954;8.928;2023-03-04T00:53:57;-1.40;99.90
5344;DHT22;2694;48.954;8.928;2023-03-04T00:56:23;-1.30;99.90
5344;DHT22;2694;48.954;8.928;2023-03-04T00:58:50;-1.40;99.90
5344;DHT22;2694;48.954;8.928;2023-03-04T01:01:17;-1.40;99.90
5344;DHT22;2694;48.954;8.928;2023-03-04T01:03:44;-1.50;99.90
5344;DHT22;2694;48.954;8.928;2023-03-04T01:06:13;-1.40;99.90
5344;DHT22;2694;48.954;8.928;2023-03-04T01:08:40;-1.40;99.90
5344;DHT22;2694;48.954;8.928;2023-03-04T01:11:07;-1.40;99.90
5344;DHT22;2694;48.954;8.928;2023-03-04T01:13:34;-1.40;99.90
5344;DHT22;2694;48.954;8.928;2023-03-04T01:16:01;1.30;99.90
5344;DHT22;2694;48.954;8.928;2023-03-04T01:18:29;-1.40;99.90
5344;DHT22;2694;48.954;8.928;2023-03-04T01:20:56;-1.40;99.90
5344;DHT22;2694;48.954;8.928;2023-03-04T01:23:25;-1.50;99.90
5344;DHT22;2694;48.954;8.928;2023-03-04T01:25:51;-1.60;99.90
5344;DHT22;2694;48.954;8.928;2023-03-04T01:28:18;-1.60;99.90
5344;DHT22;2694;48.954;8.928;2023-03-04T01:30:45;-1.60;99.90
5344;DHT22;2694;48.954;8.928;2023-03-04T01:33:12;-1.60;99.90
5344;DHT22;2694;48.954;8.928;2023-03-04T01:35:39;-1.50;99.90
5344;DHT22;2694;48.954;8.928;2023-03-04T01:38:06;-1.60;99.90
5344;DHT22;2694;48.954;8.928;2023-03-04T01:40:34;-1.50;99.90
5344;DHT22;2694;48.954;8.928;2023-03-04T01:43:02;-1.60;99.90
5344;DHT22;2694;48.954;8.928;2023-03-04T01:45:30;-1.60;99.90
5344;DHT22;2694;48.954;8.928;2023-03-04T01:47:58;-1.60;99.90
5344;DHT22;2694;48.954;8.928;2023-03-04T01:50:28;-1.60;99.90
5344;DHT22;2694;48.954;8.928;2023-03-04T01:52:56;-1.60;99.90
5344;DHT22;2694;48.954;8.928;2023-03-04T01:55:23;-1.50;99.90
5344;DHT22;2694;48.954;8.928;2023-03-04T01:57:52;-1.70;99.90
5344;DHT22;2694;48.954;8.928;2023-03-04T02:00:24;-1.70;99.90
5344;DHT22;2694;48.954;8.928;2023-03-04T02:02:52;-1.70;99.90
5344;DHT22;2694;48.954;8.928;2023-03-04T02:05:20;-1.80;99.90
5344;DHT22;2694;48.954;8.928;2023-03-04T02:07:48;-1.80;99.90
5344;DHT22;2694;48.954;8.928;2023-03-04T02:10:15;-1.80;99.90
5344;DHT22;2694;48.954;8.928;2023-03-04T02:12:43;-1.80;99.90
5344;DHT22;2694;48.954;8.928;2023-03-04T02:15:12;-1.90;99.90
5344;DHT22;2694;48.954;8.928;2023-03-04T02:17:39;-1.90;99.90
5344;DHT22;2694;48.954;8.928;2023-03-04T02:20:24;-1.90;99.90
5344;DHT22;2694;48.954;8.928;2023-03-04T02:23:02;-1.90;99.90
5344;DHT22;2694;48.954;8.928;2023-03-04T02:25:34;-1.80;99.90
5344;DHT22;2694;48.954;8.928;2023-03-04T02:28:04;-1.80;99.90
5344;DHT22;2694;48.954;8.928;2023-03-04T02:30:31;-1.90;99.90
5344;DHT22;2694;48.954;8.928;2023-03-04T02:32:57;-1.90;99.90
5344;DHT22;2694;48.954;8.928;2023-03-04T02:35:24;-1.90;99.90
5344;DHT22;2694;48.954;8.928;2023-03-04T02:37:51;-2.00;99.90
5344;DHT22;2694;48.954;8.928;2023-03-04T02:40:23;-1.90;99.90
5344;DHT22;2694;48.954;8.928;2023-03-04T02:42:51;-1.80;99.90
5344;DHT22;2694;48.954;8.928;2023-03-04T02:45:41;-1.80;99.90
5344;DHT22;2694;48.954;8.928;2023-03-04T02:48:09;-1.90;99.90
5344;DHT22;2694;48.954;8.928;2023-03-04T02:50:40;-1.90;99.90
5344;DHT22;2694;48.954;8.928;2023-03-04T02:53:07;-1.90;99.90
5344;DHT22;2694;48.954;8.928;2023-03-04T02:55:34;-2.00;99.90
5344;DHT22;2694;48.954;8.928;2023-03-04T02:58:01;-2.00;99.90
5344;DHT22;2694;48.954;8.928;2023-03-04T03:00:29;-2.00;99.90
5344;DHT22;2694;48.954;8.928;2023-03-04T03:02:57;-2.00;99.90
5344;DHT22;2694;48.954;8.928;2023-03-04T03:05:26;-2.00;99.90
5344;DHT22;2694;48.954;8.928;2023-03-04T03:07:54;-2.10;99.90
5344;DHT22;2694;48.954;8.928;2023-03-04T03:10:21;-2.10;99.90
5344;DHT22;2694;48.954;8.928;2023-03-04T03:12:48;-2.20;99.90
5344;DHT22;2694;48.954;8.928;2023-03-04T03:15:15;-2.00;99.90
5344;DHT22;2694;48.954;8.928;2023-03-04T03:17:42;-2.10;99.90
5344;DHT22;2694;48.954;8.928;2023-03-04T03:20:13;-2.10;99.90
5344;DHT22;2694;48.954;8.928;2023-03-04T03:22:40;-2.20;99.90
5344;DHT22;2694;48.954;8.928;2023-03-04T03:25:08;-2.20;99.90
5344;DHT22;2694;48.954;8.928;2023-03-04T03:27:36;-2.30;99.90
5344;DHT22;2694;48.954;8.928;2023-03-04T03:30:04;-2.30;99.90
5344;DHT22;2694;48.954;8.928;2023-03-04T03:32:33;-2.30;99.90
5344;DHT22;2694;48.954;8.928;2023-03-04T03:35:00;-2.30;99.90
5344;DHT22;2694;48.954;8.928;2023-03-04T03:37:28;-2.20;99.90
5344;DHT22;2694;48.954;8.928;2023-03-04T03:39:55;-2.10;99.90
5344;DHT22;2694;48.954;8.928;2023-03-04T03:42:22;-2.20;99.90
5344;DHT22;2694;48.954;8.928;2023-03-04T03:44:48;-2.20;99.90
5344;DHT22;2694;48.954;8.928;2023-03-04T03:47:15;-2.20;99.90
5344;DHT22;2694;48.954;8.928;2023-03-04T03:49:42;-2.40;99.90
5344;DHT22;2694;48.954;8.928;2023-03-04T03:52:09;-2.40;99.90
5344;DHT22;2694;48.954;8.928;2023-03-04T03:54:37;-2.40;99.90
5344;DHT22;2694;48.954;8.928;2023-03-04T03:57:05;-2.40;99.90
5344;DHT22;2694;48.954;8.928;2023-03-04T03:59:31;-2.40;99.90
5344;DHT22;2694;48.954;8.928;2023-03-04T04:01:58;-2.40;99.90
5344;DHT22;2694;48.954;8.928;2023-03-04T04:04:25;-2.40;99.90
5344;DHT22;2694;48.954;8.928;2023-03-04T04:06:52;-2.50;99.90
5344;DHT22;2694;48.954;8.928;2023-03-04T04:09:19;-2.50;99.90
5344;DHT22;2694;48.954;8.928;2023-03-04T04:11:47;-2.50;99.90
5344;DHT22;2694;48.954;8.928;2023-03-04T04:14:14;-2.50;99.90
5344;DHT22;2694;48.954;8.928;2023-03-04T04:16:41;-2.50;99.90
5344;DHT22;2694;48.954;8.928;2023-03-04T04:19:15;-2.50;99.90
5344;DHT22;2694;48.954;8.928;2023-03-04T04:21:42;-2.50;99.90
5344;DHT22;2694;48.954;8.928;2023-03-04T04:24:09;-2.50;99.90
5344;DHT22;2694;48.954;8.928;2023-03-04T04:26:36;-2.60;99.90
5344;DHT22;2694;48.954;8.928;2023-03-04T04:29:04;-2.60;99.90
5344;DHT22;2694;48.954;8.928;2023-03-04T04:31:32;-2.60;99.90
5344;DHT22;2694;48.954;8.928;2023-03-04T04:33:59;-2.70;99.90
5344;DHT22;2694;48.954;8.928;2023-03-04T04:36:26;-2.70;99.90
5344;DHT22;2694;48.954;8.928;2023-03-04T04:38:53;-2.80;99.90
5344;DHT22;2694;48.954;8.928;2023-03-04T04:41:21;-2.80;99.90
5344;DHT22;2694;48.954;8.928;2023-03-04T04:43:49;-2.80;99.90
5344;DHT22;2694;48.954;8.928;2023-03-04T04:46:17;-2.90;99.90
5344;DHT22;2694;48.954;8.928;2023-03-04T04:48:44;-2.90;99.90
5344;DHT22;2694;48.954;8.928;2023-03-04T04:51:12;-2.90;99.90
5344;DHT22;2694;48.954;8.928;2023-03-04T04:53:39;-3.00;99.90
5344;DHT22;2694;48.954;8.928;2023-03-04T04:56:10;-3.10;99.90
5344;DHT22;2694;48.954;8.928;2023-03-04T04:58:37;-3.10;99.90
5344;DHT22;2694;48.954;8.928;2023-03-04T05:01:05;-3.10;99.90
5344;DHT22;2694;48.954;8.928;2023-03-04T05:03:34;-3.20;99.90
5344;DHT22;2694;48.954;8.928;2023-03-04T05:06:02;-3.20;99.90
5344;DHT22;2694;48.954;8.928;2023-03-04T05:08:29;-3.20;99.90
5344;DHT22;2694;48.954;8.928;2023-03-04T05:10:56;-3.10;99.90
5344;DHT22;2694;48.954;8.928;2023-03-04T05:13:23;-3.10;99.90
5344;DHT22;2694;48.954;8.928;2023-03-04T05:15:50;-3.20;99.90
5344;DHT22;2694;48.954;8.928;2023-03-04T05:18:18;-3.20;99.90
5344;DHT22;2694;48.954;8.928;2023-03-04T05:20:50;-3.10;99.90
5344;DHT22;2694;48.954;8.928;2023-03-04T05:23:18;-3.10;99.90
5344;DHT22;2694;48.954;8.928;2023-03-04T05:25:45;-3.10;99.90
5344;DHT22;2694;48.954;8.928;2023-03-04T05:28:12;-3.10;99.90
5344;DHT22;2694;48.954;8.928;2023-03-04T05:30:40;-3.10;99.90
5344;DHT22;2694;48.954;8.928;2023-03-04T05:33:08;-3.10;99.90
5344;DHT22;2694;48.954;8.928;2023-03-04T05:35:36;-3.00;99.90
5344;DHT22;2694;48.954;8.928;2023-03-04T05:38:05;-3.10;99.90
5344;DHT22;2694;48.954;8.928;2023-03-04T05:40:33;-3.00;99.90
5344;DHT22;2694;48.954;8.928;2023-03-04T05:43:00;-3.20;99.90
5344;DHT22;2694;48.954;8.928;2023-03-04T05:45:27;-3.20;99.90
5344;DHT22;2694;48.954;8.928;2023-03-04T05:47:54;-3.10;99.90
5344;DHT22;2694;48.954;8.928;2023-03-04T05:50:22;-3.00;99.90
5344;DHT22;2694;48.954;8.928;2023-03-04T05:52:49;-3.10;99.90
5344;DHT22;2694;48.954;8.928;2023-03-04T05:55:18;-3.10;99.90
5344;DHT22;2694;48.954;8.928;2023-03-04T05:57:45;-3.20;99.90
5344;DHT22;2694;48.954;8.928;2023-03-04T06:00:13;-3.30;99.90
5344;DHT22;2694;48.954;8.928;2023-03-04T06:02:41;-3.30;99.90
5344;DHT22;2694;48.954;8.928;2023-03-04T06:05:09;-3.30;99.90
5344;DHT22;2694;48.954;8.928;2023-03-04T06:07:36;-3.30;99.90
5344;DHT22;2694;48.954;8.928;2023-03-04T06:10:04;-3.20;99.90
5344;DHT22;2694;48.954;8.928;2023-03-04T06:12:33;-3.20;99.90
5344;DHT22;2694;48.954;8.928;2023-03-04T06:15:00;-3.20;99.90
5344;DHT22;2694;48.954;8.928;2023-03-04T06:17:27;-3.20;99.90
5344;DHT22;2694;48.954;8.928;2023-03-04T06:19:54;-3.10;99.90
5344;DHT22;2694;48.954;8.928;2023-03-04T06:22:21;-3.10;99.90
5344;DHT22;2694;48.954;8.928;2023-03-04T06:24:48;-3.10;99.90
5344;DHT22;2694;48.954;8.928;2023-03-04T06:27:15;-3.10;99.90
5344;DHT22;2694;48.954;8.928;2023-03-04T06:29:43;-3.10;99.90
5344;DHT22;2694;48.954;8.928;2023-03-04T06:32:10;-3.00;99.90
5344;DHT22;2694;48.954;8.928;2023-03-04T06:34:37;-2.80;99.90
5344;DHT22;2694;48.954;8.928;2023-03-04T06:37:04;-2.80;99.90
5344;DHT22;2694;48.954;8.928;2023-03-04T06:39:30;-2.80;99.90
5344;DHT22;2694;48.954;8.928;2023-03-04T06:41:58;-2.70;99.90
5344;DHT22;2694;48.954;8.928;2023-03-04T06:44:25;-2.50;99.90
5344;DHT22;2694;48.954;8.928;2023-03-04T06:46:53;-2.30;99.90
5344;DHT22;2694;48.954;8.928;2023-03-04T06:49:20;-2.20;99.90
5344;DHT22;2694;48.954;8.928;2023-03-04T06:51:47;-2.00;99.90
5344;DHT22;2694;48.954;8.928;2023-03-04T06:54:13;-1.80;99.90
5344;DHT22;2694;48.954;8.928;2023-03-04T06:56:40;-1.80;99.90
5344;DHT22;2694;48.954;8.928;2023-03-04T06:59:07;-1.70;99.90
5344;DHT22;2694;48.954;8.928;2023-03-04T07:01:34;-1.60;99.90
5344;DHT22;2694;48.954;8.928;2023-03-04T07:04:04;-1.40;99.90
5344;DHT22;2694;48.954;8.928;2023-03-04T07:06:31;-1.30;99.90
5344;DHT22;2694;48.954;8.928;2023-03-04T07:08:58;-1.20;99.90
5344;DHT22;2694;48.954;8.928;2023-03-04T07:11:25;-1.00;99.90
5344;DHT22;2694;48.954;8.928;2023-03-04T07:13:52;-0.90;99.90
5344;DHT22;2694;48.954;8.928;2023-03-04T07:16:21;-0.80;99.90
5344;DHT22;2694;48.954;8.928;2023-03-04T07:18:48;-0.70;99.90
5344;DHT22;2694;48.954;8.928;2023-03-04T07:21:17;-0.70;99.90
5344;DHT22;2694;48.954;8.928;2023-03-04T07:23:45;-0.60;99.90
5344;DHT22;2694;48.954;8.928;2023-03-04T07:26:12;-0.50;99.90
5344;DHT22;2694;48.954;8.928;2023-03-04T07:28:39;-0.40;99.90
5344;DHT22;2694;48.954;8.928;2023-03-04T07:31:08;-0.40;99.90
5344;DHT22;2694;48.954;8.928;2023-03-04T07:33:36;-0.30;99.90
5344;DHT22;2694;48.954;8.928;2023-03-04T07:36:05;-0.30;99.90
5344;DHT22;2694;48.954;8.928;2023-03-04T07:38:33;-0.20;99.90
5344;DHT22;2694;48.954;8.928;2023-03-04T07:41:00;-0.10;99.90
5344;DHT22;2694;48.954;8.928;2023-03-04T07:43:27;-0.10;99.90
5344;DHT22;2694;48.954;8.928;2023-03-04T07:45:58;0.00;99.90
5344;DHT22;2694;48.954;8.928;2023-03-04T07:48:26;-0.10;99.90
5344;DHT22;2694;48.954;8.928;2023-03-04T07:51:02;-0.10;99.90
5344;DHT22;2694;48.954;8.928;2023-03-04T07:53:30;0.00;99.90
5344;DHT22;2694;48.954;8.928;2023-03-04T07:55:58;-0.10;99.90
5344;DHT22;2694;48.954;8.928;2023-03-04T07:58:25;0.00;99.90
5344;DHT22;2694;48.954;8.928;2023-03-04T08:00:52;0.10;99.90
5344;DHT22;2694;48.954;8.928;2023-03-04T08:03:19;0.10;99.90
5344;DHT22;2694;48.954;8.928;2023-03-04T08:05:46;0.20;99.90
5344;DHT22;2694;48.954;8.928;2023-03-04T08:08:12;0.30;99.90
5344;DHT22;2694;48.954;8.928;2023-03-04T08:10:39;0.20;99.90
5344;DHT22;2694;48.954;8.928;2023-03-04T08:13:08;0.20;99.90
5344;DHT22;2694;48.954;8.928;2023-03-04T08:15:39;0.00;99.90
5344;DHT22;2694;48.954;8.928;2023-03-04T08:18:06;0.30;99.90
5344;DHT22;2694;48.954;8.928;2023-03-04T08:20:32;1.30;99.90
5344;DHT22;2694;48.954;8.928;2023-03-04T08:22:59;0.40;99.90
5344;DHT22;2694;48.954;8.928;2023-03-04T08:25:26;0.40;99.90
5344;DHT22;2694;48.954;8.928;2023-03-04T08:27:53;0.60;99.90
5344;DHT22;2694;48.954;8.928;2023-03-04T08:30:22;0.70;99.90
5344;DHT22;2694;48.954;8.928;2023-03-04T08:32:48;0.70;99.90
5344;DHT22;2694;48.954;8.928;2023-03-04T08:35:16;0.70;99.90
5344;DHT22;2694;48.954;8.928;2023-03-04T08:37:42;0.80;99.90
5344;DHT22;2694;48.954;8.928;2023-03-04T08:40:11;0.90;99.90
5344;DHT22;2694;48.954;8.928;2023-03-04T08:42:39;1.00;99.90
5344;DHT22;2694;48.954;8.928;2023-03-04T08:45:06;1.20;99.90
5344;DHT22;2694;48.954;8.928;2023-03-04T08:47:35;1.20;99.90
5344;DHT22;2694;48.954;8.928;2023-03-04T08:50:02;1.50;99.90
5344;DHT22;2694;48.954;8.928;2023-03-04T08:52:29;1.70;99.90
5344;DHT22;2694;48.954;8.928;2023-03-04T08:54:56;1.70;99.90
5344;DHT22;2694;48.954;8.928;2023-03-04T08:57:23;1.90;99.90
5344;DHT22;2694;48.954;8.928;2023-03-04T08:59:52;1.90;99.90
5344;DHT22;2694;48.954;8.928;2023-03-04T09:02:19;1.90;99.90
5344;DHT22;2694;48.954;8.928;2023-03-04T09:04:47;2.20;99.90
5344;DHT22;2694;48.954;8.928;2023-03-04T09:07:14;2.20;99.90
5344;DHT22;2694;48.954;8.928;2023-03-04T09:09:41;2.30;99.90
5344;DHT22;2694;48.954;8.928;2023-03-04T09:12:08;2.40;99.90
5344;DHT22;2694;48.954;8.928;2023-03-04T09:14:35;2.40;99.90
5344;DHT22;2694;48.954;8.928;2023-03-04T09:17:02;2.30;99.90
5344;DHT22;2694;48.954;8.928;2023-03-04T09:19:29;2.20;99.90
5344;DHT22;2694;48.954;8.928;2023-03-04T09:21:58;2.30;99.90
5344;DHT22;2694;48.954;8.928;2023-03-04T09:24:25;2.50;99.90
5344;DHT22;2694;48.954;8.928;2023-03-04T09:26:52;2.50;99.90
5344;DHT22;2694;48.954;8.928;2023-03-04T09:29:20;2.60;99.90
5344;DHT22;2694;48.954;8.928;2023-03-04T09:31:47;2.70;99.90
5344;DHT22;2694;48.954;8.928;2023-03-04T09:34:14;2.90;99.90
5344;DHT22;2694;48.954;8.928;2023-03-04T09:36:40;2.80;99.90
5344;DHT22;2694;48.954;8.928;2023-03-04T09:39:09;2.50;99.90
5344;DHT22;2694;48.954;8.928;2023-03-04T09:41:39;2.60;99.90
5344;DHT22;2694;48.954;8.928;2023-03-04T09:44:14;2.60;99.90
5344;DHT22;2694;48.954;8.928;2023-03-04T09:46:43;2.70;99.90
5344;DHT22;2694;48.954;8.928;2023-03-04T09:49:11;2.90;99.90
5344;DHT22;2694;48.954;8.928;2023-03-04T09:51:47;2.80;99.90
5344;DHT22;2694;48.954;8.928;2023-03-04T09:54:26;2.80;99.90
5344;DHT22;2694;48.954;8.928;2023-03-04T09:56:59;2.70;99.90
5344;DHT22;2694;48.954;8.928;2023-03-04T09:59:33;2.80;99.90
5344;DHT22;2694;48.954;8.928;2023-03-04T10:02:09;3.00;99.90
5344;DHT22;2694;48.954;8.928;2023-03-04T10:04:43;3.20;99.90
5344;DHT22;2694;48.954;8.928;2023-03-04T10:07:16;3.50;99.90
5344;DHT22;2694;48.954;8.928;2023-03-04T10:09:48;3.70;99.90
5344;DHT22;2694;48.954;8.928;2023-03-04T10:12:19;3.70;99.90
5344;DHT22;2694;48.954;8.928;2023-03-04T10:14:51;3.60;99.90
5344;DHT22;2694;48.954;8.928;2023-03-04T10:17:33;3.60;99.90
5344;DHT22;2694;48.954;8.928;2023-03-04T10:20:04;3.40;99.90
5344;DHT22;2694;48.954;8.928;2023-03-04T10:22:35;3.20;99.90
5344;DHT22;2694;48.954;8.928;2023-03-04T10:25:15;3.20;99.90
5344;DHT22;2694;48.954;8.928;2023-03-04T10:27:43;3.40;99.90
5344;DHT22;2694;48.954;8.928;2023-03-04T10:30:21;3.30;99.90
5344;DHT22;2694;48.954;8.928;2023-03-04T10:32:49;3.40;99.90
5344;DHT22;2694;48.954;8.928;2023-03-04T10:35:22;3.40;99.90
5344;DHT22;2694;48.954;8.928;2023-03-04T10:37:52;3.70;99.90
5344;DHT22;2694;48.954;8.928;2023-03-04T10:40:22;3.50;99.90
5344;DHT22;2694;48.954;8.928;2023-03-04T10:42:50;3.60;99.90
5344;DHT22;2694;48.954;8.928;2023-03-04T10:45:23;3.60;99.90
5344;DHT22;2694;48.954;8.928;2023-03-04T10:47:54;3.60;99.90
5344;DHT22;2694;48.954;8.928;2023-03-04T10:50:23;3.60;99.90
5344;DHT22;2694;48.954;8.928;2023-03-04T10:52:50;3.70;99.90
5344;DHT22;2694;48.954;8.928;2023-03-04T10:55:23;3.60;99.90
5344;DHT22;2694;48.954;8.928;2023-03-04T10:57:53;3.50;99.90
5344;DHT22;2694;48.954;8.928;2023-03-04T11:00:28;3.50;99.90
5344;DHT22;2694;48.954;8.928;2023-03-04T11:03:20;3.50;99.90
5344;DHT22;2694;48.954;8.928;2023-03-04T11:05:48;3.50;99.90
5344;DHT22;2694;48.954;8.928;2023-03-04T11:08:18;3.40;99.90
5344;DHT22;2694;48.954;8.928;2023-03-04T11:10:47;3.40;99.90
5344;DHT22;2694;48.954;8.928;2023-03-04T11:13:20;3.50;99.90
5344;DHT22;2694;48.954;8.928;2023-03-04T11:15:50;3.30;99.90
5344;DHT22;2694;48.954;8.928;2023-03-04T11:18:19;3.20;99.90
5344;DHT22;2694;48.954;8.928;2023-03-04T11:20:48;3.20;99.90
5344;DHT22;2694;48.954;8.928;2023-03-04T11:23:18;3.50;99.90
5344;DHT22;2694;48.954;8.928;2023-03-04T11:25:55;3.10;99.90
5344;DHT22;2694;48.954;8.928;2023-03-04T11:28:28;3.10;99.90
5344;DHT22;2694;48.954;8.928;2023-03-04T11:31:00;3.10;99.90
5344;DHT22;2694;48.954;8.928;2023-03-04T11:33:40;3.00;99.90
5344;DHT22;2694;48.954;8.928;2023-03-04T11:36:21;3.00;99.90
5344;DHT22;2694;48.954;8.928;2023-03-04T11:38:50;3.10;99.90
5344;DHT22;2694;48.954;8.928;2023-03-04T11:41:24;3.00;99.90
5344;DHT22;2694;48.954;8.928;2023-03-04T11:43:51;3.00;99.90
5344;DHT22;2694;48.954;8.928;2023-03-04T11:46:41;3.00;99.90
5344;DHT22;2694;48.954;8.928;2023-03-04T11:52:13;3.10;99.90
5344;DHT22;2694;48.954;8.928;2023-03-04T11:54:50;3.10;99.90
5344;DHT22;2694;48.954;8.928;2023-03-04T11:57:30;2.90;99.90
5344;DHT22;2694;48.954;8.928;2023-03-04T12:00:15;3.00;99.90
5344;DHT22;2694;48.954;8.928;2023-03-04T12:02:55;3.00;99.90
5344;DHT22;2694;48.954;8.928;2023-03-04T12:05:36;3.00;99.90
5344;DHT22;2694;48.954;8.928;2023-03-04T12:08:24;3.10;99.90
5344;DHT22;2694;48.954;8.928;2023-03-04T12:11:01;3.20;99.90
5344;DHT22;2694;48.954;8.928;2023-03-04T12:14:07;3.00;99.90
5344;DHT22;2694;48.954;8.928;2023-03-04T12:17:09;3.20;99.90
5344;DHT22;2694;48.954;8.928;2023-03-04T12:19:55;3.40;99.90
5344;DHT22;2694;48.954;8.928;2023-03-04T12:22:32;3.40;99.90
5344;DHT22;2694;48.954;8.928;2023-03-04T12:25:23;3.30;99.90
5344;DHT22;2694;48.954;8.928;2023-03-04T12:28:00;3.20;99.90
5344;DHT22;2694;48.954;8.928;2023-03-04T12:30:46;3.20;99.90
5344;DHT22;2694;48.954;8.928;2023-03-04T12:33:24;3.30;99.90
5344;DHT22;2694;48.954;8.928;2023-03-04T12:35:57;3.50;99.90
5344;DHT22;2694;48.954;8.928;2023-03-04T12:38:48;3.60;99.90
5344;DHT22;2694;48.954;8.928;2023-03-04T12:41:30;3.60;99.90
5344;DHT22;2694;48.954;8.928;2023-03-04T12:44:07;3.70;99.90
5344;DHT22;2694;48.954;8.928;2023-03-04T12:49:54;3.80;99.90
5344;DHT22;2694;48.954;8.928;2023-03-04T12:52:32;3.80;99.90
5344;DHT22;2694;48.954;8.928;2023-03-04T12:55:07;3.80;99.90
5344;DHT22;2694;48.954;8.928;2023-03-04T12:57:35;3.70;99.90
5344;DHT22;2694;48.954;8.928;2023-03-04T13:00:13;3.70;99.90
5344;DHT22;2694;48.954;8.928;2023-03-04T13:03:06;3.60;99.90
5344;DHT22;2694;48.954;8.928;2023-03-04T13:05:47;3.50;99.90
5344;DHT22;2694;48.954;8.928;2023-03-04T13:08:29;3.40;99.90
5344;DHT22;2694;48.954;8.928;2023-03-04T13:11:00;3.50;99.90
5344;DHT22;2694;48.954;8.928;2023-03-04T13:13:37;3.50;99.90
5344;DHT22;2694;48.954;8.928;2023-03-04T13:16:06;3.60;99.90
5344;DHT22;2694;48.954;8.928;2023-03-04T13:18:50;3.70;99.90
5344;DHT22;2694;48.954;8.928;2023-03-04T13:21:21;3.70;99.90
5344;DHT22;2694;48.954;8.928;2023-03-04T13:23:50;3.60;99.90
5344;DHT22;2694;48.954;8.928;2023-03-04T13:26:23;3.50;99.90
5344;DHT22;2694;48.954;8.928;2023-03-04T13:29:08;3.50;99.90
5344;DHT22;2694;48.954;8.928;2023-03-04T13:31:58;3.40;99.90
5344;DHT22;2694;48.954;8.928;2023-03-04T13:34:44;3.50;99.90
5344;DHT22;2694;48.954;8.928;2023-03-04T13:37:46;3.50;99.90
5344;DHT22;2694;48.954;8.928;2023-03-04T13:40:35;3.50;99.90
5344;DHT22;2694;48.954;8.928;2023-03-04T13:43:23;3.50;99.90
5344;DHT22;2694;48.954;8.928;2023-03-04T13:45:51;3.50;99.90
5344;DHT22;2694;48.954;8.928;2023-03-04T13:48:29;3.60;99.90
5344;DHT22;2694;48.954;8.928;2023-03-04T13:50:58;3.70;99.90
5344;DHT22;2694;48.954;8.928;2023-03-04T13:56:28;3.60;99.90
5344;DHT22;2694;48.954;8.928;2023-03-04T13:59:26;3.60;99.90
5344;DHT22;2694;48.954;8.928;2023-03-04T14:02:09;3.60;99.90
5344;DHT22;2694;48.954;8.928;2023-03-04T14:04:37;3.60;99.90
5344;DHT22;2694;48.954;8.928;2023-03-04T14:07:20;3.50;99.90
5344;DHT22;2694;48.954;8.928;2023-03-04T14:09:58;3.60;99.90
5344;DHT22;2694;48.954;8.928;2023-03-04T14:12:28;3.50;99.90
5344;DHT22;2694;48.954;8.928;2023-03-04T14:14:57;3.50;99.90
5344;DHT22;2694;48.954;8.928;2023-03-04T14:17:28;3.50;99.90
5344;DHT22;2694;48.954;8.928;2023-03-04T14:19:56;3.40;99.90
5344;DHT22;2694;48.954;8.928;2023-03-04T14:22:28;3.40;99.90
5344;DHT22;2694;48.954;8.928;2023-03-04T14:25:00;3.50;99.90
5344;DHT22;2694;48.954;8.928;2023-03-04T14:27:28;3.50;99.90
5344;DHT22;2694;48.954;8.928;2023-03-04T14:29:56;3.70;99.90
5344;DHT22;2694;48.954;8.928;2023-03-04T14:32:24;3.80;99.90
5344;DHT22;2694;48.954;8.928;2023-03-04T14:34:55;3.90;99.90
5344;DHT22;2694;48.954;8.928;2023-03-04T14:37:26;3.90;99.90
5344;DHT22;2694;48.954;8.928;2023-03-04T14:39:59;3.90;99.90
5344;DHT22;2694;48.954;8.928;2023-03-04T14:42:38;3.90;99.90
5344;DHT22;2694;48.954;8.928;2023-03-04T14:45:10;3.90;99.90
5344;DHT22;2694;48.954;8.928;2023-03-04T14:47:40;4.00;99.90
5344;DHT22;2694;48.954;8.928;2023-03-04T14:50:12;4.00;99.90
5344;DHT22;2694;48.954;8.928;2023-03-04T14:52:42;3.90;99.90
5344;DHT22;2694;48.954;8.928;2023-03-04T14:55:23;3.90;99.90
5344;DHT22;2694;48.954;8.928;2023-03-04T14:57:51;4.00;99.90
5344;DHT22;2694;48.954;8.928;2023-03-04T15:00:30;4.00;99.90
5344;DHT22;2694;48.954;8.928;2023-03-04T15:02:58;4.00;99.90
5344;DHT22;2694;48.954;8.928;2023-03-04T15:05:28;3.80;99.90
5344;DHT22;2694;48.954;8.928;2023-03-04T15:07:58;3.80;99.90
5344;DHT22;2694;48.954;8.928;2023-03-04T15:10:27;3.80;99.90
5344;DHT22;2694;48.954;8.928;2023-03-04T15:12:56;3.80;99.90
5344;DHT22;2694;48.954;8.928;2023-03-04T15:15:37;3.80;99.90
5344;DHT22;2694;48.954;8.928;2023-03-04T15:18:16;3.70;99.90
5344;DHT22;2694;48.954;8.928;2023-03-04T15:20:52;3.70;99.90
5344;DHT22;2694;48.954;8.928;2023-03-04T15:23:20;3.70;99.90
5344;DHT22;2694;48.954;8.928;2023-03-04T15:25:50;3.70;99.90
5344;DHT22;2694;48.954;8.928;2023-03-04T15:28:18;3.60;99.90
5344;DHT22;2694;48.954;8.928;2023-03-04T15:30:45;3.60;99.90
5344;DHT22;2694;48.954;8.928;2023-03-04T15:33:13;3.60;99.90
5344;DHT22;2694;48.954;8.928;2023-03-04T15:35:43;3.60;99.90
5344;DHT22;2694;48.954;8.928;2023-03-04T15:38:13;3.50;99.90
5344;DHT22;2694;48.954;8.928;2023-03-04T15:40:42;3.60;99.90
5344;DHT22;2694;48.954;8.928;2023-03-04T15:43:13;3.60;99.90
5344;DHT22;2694;48.954;8.928;2023-03-04T15:45:40;3.60;99.90
5344;DHT22;2694;48.954;8.928;2023-03-04T15:48:09;3.60;99.90
5344;DHT22;2694;48.954;8.928;2023-03-04T15:50:38;3.50;99.90
5344;DHT22;2694;48.954;8.928;2023-03-04T15:53:07;3.50;99.90
5344;DHT22;2694;48.954;8.928;2023-03-04T15:55:35;3.50;99.90
5344;DHT22;2694;48.954;8.928;2023-03-04T15:58:03;3.50;99.90
5344;DHT22;2694;48.954;8.928;2023-03-04T16:00:30;3.60;99.90
5344;DHT22;2694;48.954;8.928;2023-03-04T16:02:58;3.60;99.90
5344;DHT22;2694;48.954;8.928;2023-03-04T16:05:26;3.50;99.90
5344;DHT22;2694;48.954;8.928;2023-03-04T16:07:53;3.50;99.90
5344;DHT22;2694;48.954;8.928;2023-03-04T16:10:23;3.50;99.90
5344;DHT22;2694;48.954;8.928;2023-03-04T16:12:51;3.50;99.90
5344;DHT22;2694;48.954;8.928;2023-03-04T16:15:21;3.50;99.90
5344;DHT22;2694;48.954;8.928;2023-03-04T16:17:49;3.50;99.90
5344;DHT22;2694;48.954;8.928;2023-03-04T16:20:17;3.50;99.90
5344;DHT22;2694;48.954;8.928;2023-03-04T16:22:46;3.60;99.90
5344;DHT22;2694;48.954;8.928;2023-03-04T16:25:15;3.50;99.90
5344;DHT22;2694;48.954;8.928;2023-03-04T16:27:42;3.50;99.90
5344;DHT22;2694;48.954;8.928;2023-03-04T16:30:14;3.50;99.90
5344;DHT22;2694;48.954;8.928;2023-03-04T16:32:43;3.50;99.90
5344;DHT22;2694;48.954;8.928;2023-03-04T16:35:10;3.40;99.90
5344;DHT22;2694;48.954;8.928;2023-03-04T16:37:38;3.30;99.90
5344;DHT22;2694;48.954;8.928;2023-03-04T16:40:06;3.40;99.90